Taylorville, Illinois
Current Conditions -  °F | °C
As of 6:15 AM on Sunday 25 Jan 2015 (Local Time) from KTAZ Reporting Station
Light Rain Light Rain  
Wind Chill: 37°   Ceiling: 3600
Heat Index: 37°   Visibility: 10mi
Dew Point: 36°   Wind: 0mph
Humidity: 93%   Direction: NA
Pressure: 29.6"   Gusts: NA
Location:  39.55°N, 89.29°W
Report Text: KTAZ 251215Z AUTO 00000KT 10SM -RA OVC036 03/02 A2960 RMK AO2 P0001
Loading
Personal Weather Stations






























Interactive Weather Map New forecast layout! Learn more

10-Day Weather Forecast

Advertisements
Track Severe Weather on mobile